Huntsville Municipal Airport
KUTS : now visible

Airfield :











YOU CAN JOIN US ON...

 
LOGIN :

Register | Disclaimer

   EN    FR    IT 

 









Legend :    VFR   Marginal VFR   IFR   Intensive IFR   Very Intensive IFR
Visi :
Ceiling :
>= 8 km
>= 3000ft
5 to 8 km
1000 to 3000 ft
1500m to 5 km
500 to 1000 ft
800 to 1500m
200 to 500 ft
< 800m
< 200 ft
Symbols :   Thunderstorms  Fog  Heavy snow  Heavy precipitations  Wind > 20 kt






- Airport Elevation : 363 ft


KUTS - Huntsville Municipal

CURRENT METAR :
  • 281153Z AUTO 23009KT 10SM CLR 07/M01 A3032 RMK AO2 SLP268 T00671006 10072 20056 53012

EXPIRED METARs :
  • 281053Z AUTO 22008KT 10SM CLR 06/M01 A3031 RMK AO2 SLP263 T00611006
  • 280953Z AUTO 21007KT 10SM CLR 06/M01 A3030 RMK AO2 SLP259 T00611006

TAF KUTS
Valid from the 28 at 12:00 until the 29 at 12:00 UTC


281125Z 2812/2912 22008KT P6SM SKC
FM281800 30006KT P6SM SKC
FM290000 VRB04KT P6SM SKC



MET'MAP, your aeronautical weather chart ! - Copyright ORBIFLY December 2007 - Disclaimer

ORBIFLY MET'MAP TEAM :

Programming & Development : Alexandra Zaïnal
Concept & original design : Baudouin d'Aumeries
Assistance for programming : Marc-Olivier Méhu
Technical & hardware support : Manuel Goepfert

Contact : metmap@orbifly.com




SOURCES & CREDITS :

   NOAA       Earth
Advisory